Terminal Aerodrome Forecast
Issued by NWS

Current Version | Previous Version | Text Only | Print | Product List | Glossary On
Versions: 1 2 3 4 5 6 7 8 9 10 11 12
000
FTUS42 TJSJ 290550
TAFJSJ
TAF
TJSJ 290550Z 2906/3006 00000KT P6SM FEW040 SCT060 SCT100
     FM291300 09012KT P6SM FEW025 SCT060 SCT120
     FM291800 07014G20KT P6SM VCSH SCT022 BKN050=

USA.gov is the U.S. government's official web portal to all federal, state and local government web resources and services.